Time;durP1;ratioP1;P1;durP2;ratioP2;P2;SDS_P1;SDS_P2;PMS_P1;PMS_P2;Temp;Humidity;BMP_temperature;BMP_pressure;BME280_temperature;BME280_humidity;BME280_pressure;Samples;Min_cycle;Max_cycle;Signal;HPM_P1;HPM_P2
2024/03/23 00:01:39;;;;;;;12.25;7.55;;;;;11.90;97797.00;;;;7395548;19;20022;-67
2024/03/23 00:04:05;;;;;;;15.90;8.65;;;;;11.90;97800.00;;;;7393929;19;20340;-67
2024/03/23 00:06:32;;;;;;;10.40;7.22;;;;;12.00;97793.00;;;;7392153;19;20022;-67
2024/03/23 00:08:59;;;;;;;10.35;7.35;;;;;11.90;97790.00;;;;7393252;19;20043;-67
2024/03/23 00:11:26;;;;;;;10.48;7.25;;;;;11.80;97768.00;;;;7391995;19;20042;-67
2024/03/23 00:13:52;;;;;;;10.32;7.25;;;;;11.60;97759.00;;;;7393643;19;20015;-67
2024/03/23 00:16:21;;;;;;;10.27;7.40;;;;;11.60;97762.00;;;;7394820;19;20018;-67
2024/03/23 00:18:51;;;;;;;12.32;7.97;;;;;11.60;97753.00;;;;7396932;19;20018;-67
2024/03/23 00:21:17;;;;;;;13.27;9.60;;;;;11.80;97747.00;;;;7392372;19;20046;-67
2024/03/23 00:23:44;;;;;;;15.23;9.73;;;;;11.90;97736.00;;;;7392924;19;20014;-67
2024/03/23 00:26:11;;;;;;;13.48;9.18;;;;;12.00;97739.00;;;;7392146;19;20047;-68
2024/03/23 00:28:37;;;;;;;15.23;10.10;;;;;12.00;97732.00;;;;7394028;19;20014;-68
2024/03/23 00:31:04;;;;;;;16.25;10.07;;;;;12.10;97738.00;;;;7391768;19;20014;-68
2024/03/23 00:33:31;;;;;;;15.00;10.25;;;;;12.20;97737.00;;;;7392144;19;20034;-68
2024/03/23 00:35:57;;;;;;;14.38;9.85;;;;;12.30;97736.00;;;;7391193;19;20010;-68
2024/03/23 00:38:24;;;;;;;17.33;10.90;;;;;12.30;97735.00;;;;7393605;19;20017;-68
2024/03/23 00:40:52;;;;;;;14.20;10.00;;;;;12.30;97727.00;;;;7394179;19;20490;-68
2024/03/23 00:43:19;;;;;;;14.05;9.65;;;;;12.40;97729.00;;;;7393270;19;20007;-68
2024/03/23 00:45:47;;;;;;;17.55;10.90;;;;;12.40;97725.00;;;;7394540;19;20018;-67
2024/03/23 00:48:15;;;;;;;14.68;10.38;;;;;12.50;97718.00;;;;7398290;19;20014;-68
2024/03/23 00:50:42;;;;;;;12.93;9.95;;;;;12.50;97717.00;;;;7391696;19;20022;-67
2024/03/23 00:53:08;;;;;;;12.35;9.65;;;;;12.60;97721.00;;;;7391248;19;20391;-67
2024/03/23 00:55:34;;;;;;;15.02;10.68;;;;;12.60;97713.00;;;;7391418;19;20026;-67
2024/03/23 00:57:59;;;;;;;13.90;9.10;;;;;12.70;97718.00;;;;7392325;19;20006;-67
2024/03/23 01:00:25;;;;;;;15.43;10.07;;;;;12.70;97712.00;;;;7391700;19;20357;-67
2024/03/23 01:02:51;;;;;;;13.35;9.70;;;;;12.80;97712.00;;;;7392068;19;20548;-67
2024/03/23 01:05:17;;;;;;;12.57;8.85;;;;;12.70;97711.00;;;;7392177;19;20022;-67
2024/03/23 01:07:42;;;;;;;14.95;10.02;;;;;12.70;97718.00;;;;7390353;19;20031;-67
2024/03/23 01:10:08;;;;;;;15.27;10.45;;;;;12.60;97724.00;;;;7392370;19;20392;-68
2024/03/23 01:12:34;;;;;;;13.57;10.07;;;;;12.60;97718.00;;;;7391772;19;20010;-67
2024/03/23 01:15:00;;;;;;;12.45;9.55;;;;;12.50;97707.00;;;;7394773;19;20325;-68
2024/03/23 01:17:25;;;;;;;16.13;9.85;;;;;12.30;97711.00;;;;7397086;19;20014;-67
2024/03/23 01:19:51;;;;;;;14.13;11.18;;;;;12.30;97706.00;;;;7395080;19;20017;-67
2024/03/23 01:22:17;;;;;;;16.20;10.43;;;;;12.20;97704.00;;;;7390390;19;20018;-69
2024/03/23 01:24:42;;;;;;;16.30;9.60;;;;;12.20;97696.00;;;;7391101;19;20011;-69
2024/03/23 01:27:09;;;;;;;14.02;10.45;;;;;12.10;97700.00;;;;7389567;19;20011;-69
2024/03/23 01:29:34;;;;;;;18.45;11.25;;;;;12.10;97694.00;;;;7390409;19;20034;-69
2024/03/23 01:32:00;;;;;;;14.98;11.20;;;;;12.10;97697.00;;;;7389914;19;20011;-69
2024/03/23 01:34:26;;;;;;;18.15;11.25;;;;;12.10;97693.00;;;;7391711;19;20015;-69
2024/03/23 01:36:52;;;;;;;17.02;11.60;;;;;12.10;97694.00;;;;7390386;19;20010;-69
2024/03/23 01:39:17;;;;;;;15.13;11.38;;;;;12.10;97696.00;;;;7390884;19;20043;-69
2024/03/23 01:41:43;;;;;;;16.17;12.63;;;;;12.10;97687.00;;;;7389785;19;20007;-69
2024/03/23 01:44:10;;;;;;;17.73;11.65;;;;;12.00;97687.00;;;;7390550;19;20007;-69
2024/03/23 01:46:41;;;;;;;13.73;11.23;;;;;12.00;97685.00;;;;7392069;19;20027;-69
2024/03/23 01:49:07;;;;;;;16.67;11.45;;;;;12.00;97681.00;;;;7394527;19;20014;-69
2024/03/23 01:51:33;;;;;;;16.90;12.65;;;;;12.00;97672.00;;;;7388626;19;20022;-69
2024/03/23 01:54:02;;;;;;;20.45;12.57;;;;;12.00;97672.00;;;;7394183;19;20483;-68
2024/03/23 01:56:29;;;;;;;16.63;12.00;;;;;12.00;97673.00;;;;7396161;19;20015;-69
2024/03/23 01:58:55;;;;;;;21.35;12.93;;;;;12.00;97669.00;;;;7397519;19;20014;-69
2024/03/23 02:01:21;;;;;;;18.13;12.23;;;;;12.00;97667.00;;;;7396756;19;20355;-69
2024/03/23 02:03:47;;;;;;;22.75;14.18;;;;;12.00;97667.00;;;;7397470;19;20003;-69
2024/03/23 02:06:13;;;;;;;18.25;12.60;;;;;12.00;97661.00;;;;7396016;19;20055;-69
2024/03/23 02:08:39;;;;;;;19.27;12.05;;;;;12.00;97661.00;;;;7396970;19;20014;-69
2024/03/23 02:11:05;;;;;;;17.38;12.85;;;;;12.00;97661.00;;;;7395942;19;20022;-69
2024/03/23 02:13:31;;;;;;;19.10;12.88;;;;;12.00;97666.00;;;;7397366;19;20424;-69
2024/03/23 02:15:57;;;;;;;18.67;12.82;;;;;12.00;97671.00;;;;7397285;19;20019;-69
2024/03/23 02:18:23;;;;;;;19.02;12.18;;;;;12.00;97655.00;;;;7399531;19;20011;-69
2024/03/23 02:20:49;;;;;;;17.83;12.60;;;;;11.90;97657.00;;;;7396176;19;20011;-69
2024/03/23 02:23:16;;;;;;;18.88;12.43;;;;;11.90;97659.00;;;;7396692;19;20006;-69
2024/03/23 02:25:41;;;;;;;17.05;12.45;;;;;11.80;97653.00;;;;7396609;19;20023;-68
2024/03/23 02:28:07;;;;;;;18.92;12.80;;;;;11.80;97653.00;;;;7397385;19;20438;-69
2024/03/23 02:30:33;;;;;;;17.08;12.32;;;;;11.80;97654.00;;;;7396494;19;20011;-69
2024/03/23 02:32:59;;;;;;;16.50;11.77;;;;;11.80;97657.00;;;;7393958;19;20045;-68
2024/03/23 02:35:24;;;;;;;21.98;13.30;;;;;11.80;97655.00;;;;7396983;19;20017;-68
2024/03/23 02:37:50;;;;;;;19.67;13.30;;;;;11.90;97659.00;;;;7394009;19;20023;-69
2024/03/23 02:40:16;;;;;;;19.42;12.60;;;;;12.00;97656.00;;;;7396512;19;20375;-69
2024/03/23 02:42:43;;;;;;;20.65;12.45;;;;;12.00;97667.00;;;;7396602;19;20373;-68
2024/03/23 02:45:08;;;;;;;24.48;14.82;;;;;12.10;97662.00;;;;7396652;19;20111;-69
2024/03/23 02:47:34;;;;;;;27.23;14.35;;;;;12.10;97655.00;;;;7398145;19;20030;-69
2024/03/23 02:50:00;;;;;;;27.45;15.43;;;;;12.10;97649.00;;;;7399728;19;20035;-69
2024/03/23 02:52:25;;;;;;;27.55;16.70;;;;;12.20;97634.00;;;;7393476;19;20011;-69
2024/03/23 02:54:51;;;;;;;24.52;15.90;;;;;12.30;97621.00;;;;7396547;19;20007;-69
2024/03/23 02:57:17;;;;;;;25.05;15.85;;;;;12.40;97629.00;;;;7395123;19;20043;-69
2024/03/23 02:59:43;;;;;;;25.38;17.33;;;;;12.40;97636.00;;;;7396353;19;20018;-69
2024/03/23 03:02:08;;;;;;;27.73;16.33;;;;;12.40;97631.00;;;;7397725;19;20360;-69
2024/03/23 03:04:34;;;;;;;22.52;14.90;;;;;12.40;97632.00;;;;7401358;19;20058;-69
2024/03/23 03:07:00;;;;;;;27.30;15.82;;;;;12.40;97643.00;;;;7395095;19;20356;-69
2024/03/23 03:12:48;;;;;;;24.02;14.90;;;;;12.50;97637.00;;;;7395926;19;20018;-67
2024/03/23 03:15:14;;;;;;;22.05;14.32;;;;;12.40;97636.00;;;;7395066;19;20015;-67
2024/03/23 03:17:40;;;;;;;21.38;13.18;;;;;12.40;97644.00;;;;7393003;19;20405;-67
2024/03/23 03:20:06;;;;;;;18.13;12.65;;;;;12.40;97643.00;;;;7394986;19;20029;-67
2024/03/23 03:22:31;;;;;;;22.50;12.82;;;;;12.50;97639.00;;;;7395439;19;20006;-67
2024/03/23 03:24:57;;;;;;;22.23;12.57;;;;;12.40;97632.00;;;;7394743;19;20006;-67
2024/03/23 03:27:23;;;;;;;19.52;12.25;;;;;12.40;97617.00;;;;7392386;19;20027;-67
2024/03/23 03:29:48;;;;;;;18.10;11.73;;;;;12.30;97614.00;;;;7394538;19;20014;-67
2024/03/23 03:32:14;;;;;;;19.70;13.98;;;;;12.30;97603.00;;;;7394337;19;20009;-68
2024/03/23 03:34:39;;;;;;;19.85;13.13;;;;;12.30;97623.00;;;;7397416;19;20369;-68
2024/03/23 03:37:05;;;;;;;21.08;12.57;;;;;12.40;97619.00;;;;7392522;19;20011;-68
2024/03/23 03:39:31;;;;;;;21.02;13.27;;;;;12.40;97630.00;;;;7395252;19;20011;-68
2024/03/23 03:41:56;;;;;;;18.75;12.20;;;;;12.40;97619.00;;;;7393894;19;20006;-68
2024/03/23 03:44:22;;;;;;;18.08;13.10;;;;;12.40;97624.00;;;;7394263;19;20022;-68
2024/03/23 03:46:48;;;;;;;19.02;11.60;;;;;12.40;97610.00;;;;7393156;19;20010;-68
2024/03/23 03:49:13;;;;;;;17.35;11.73;;;;;12.40;97611.00;;;;7393378;19;20010;-68
2024/03/23 03:51:39;;;;;;;14.77;10.55;;;;;12.40;97617.00;;;;7392371;19;20018;-68
2024/03/23 03:54:05;;;;;;;14.48;9.98;;;;;12.30;97616.00;;;;7393581;19;20071;-68
2024/03/23 03:56:30;;;;;;;14.55;9.52;;;;;12.30;97626.00;;;;7392382;19;20075;-68
2024/03/23 03:58:56;;;;;;;12.05;8.77;;;;;12.20;97632.00;;;;7393613;19;20340;-68
2024/03/23 04:01:22;;;;;;;11.82;8.43;;;;;12.20;97611.00;;;;7393211;19;20010;-68
2024/03/23 04:03:47;;;;;;;14.73;8.50;;;;;12.10;97619.00;;;;7397027;19;20015;-68
2024/03/23 04:06:19;;;;;;;10.48;7.38;;;;;12.10;97622.00;;;;7397101;19;20074;-68
2024/03/23 04:08:44;;;;;;;10.85;7.30;;;;;12.00;97623.00;;;;7393261;19;20469;-68
2024/03/23 04:11:10;;;;;;;10.18;6.68;;;;;12.00;97633.00;;;;7392098;19;20039;-68
2024/03/23 04:13:36;;;;;;;10.43;6.68;;;;;12.00;97637.00;;;;7393580;19;20333;-68
2024/03/23 04:16:02;;;;;;;7.82;6.03;;;;;11.90;97630.00;;;;7390264;19;20039;-68
2024/03/23 04:18:27;;;;;;;7.40;5.07;;;;;11.80;97635.00;;;;7393903;19;20018;-68
2024/03/23 04:20:53;;;;;;;5.63;4.53;;;;;11.70;97632.00;;;;7393007;19;20018;-68
2024/03/23 04:23:19;;;;;;;6.28;4.55;;;;;11.60;97643.00;;;;7394416;19;20022;-70
2024/03/23 04:25:44;;;;;;;5.57;4.13;;;;;11.50;97642.00;;;;7392728;19;20114;-68
2024/03/23 04:28:10;;;;;;;5.32;4.20;;;;;11.40;97648.00;;;;7393876;19;20346;-69
2024/03/23 04:30:36;;;;;;;6.25;4.43;;;;;11.40;97667.00;;;;7392581;19;20011;-68
2024/03/23 04:33:02;;;;;;;6.82;4.43;;;;;11.40;97670.00;;;;7394958;19;20011;-68
2024/03/23 04:35:28;;;;;;;6.18;4.65;;;;;11.30;97663.00;;;;7396810;19;20014;-68
2024/03/23 04:37:55;;;;;;;4.80;3.80;;;;;11.20;97685.00;;;;7394664;19;20365;-68
2024/03/23 04:40:21;;;;;;;5.15;4.18;;;;;11.10;97698.00;;;;7396567;19;20010;-68
2024/03/23 04:42:47;;;;;;;6.18;4.75;;;;;11.10;97680.00;;;;7398727;19;20482;-68
2024/03/23 04:45:13;;;;;;;5.07;4.50;;;;;11.00;97686.00;;;;7397987;19;20019;-68
2024/03/23 04:47:38;;;;;;;5.57;4.15;;;;;11.00;97700.00;;;;7392817;19;20448;-68
2024/03/23 04:50:05;;;;;;;5.65;4.05;;;;;10.90;97717.00;;;;7391467;19;20007;-68
2024/03/23 04:52:31;;;;;;;5.00;3.38;;;;;10.90;97721.00;;;;7390047;19;20015;-68
2024/03/23 04:54:57;;;;;;;4.60;2.53;;;;;10.80;97737.00;;;;7391625;19;20014;-68
2024/03/23 04:57:23;;;;;;;2.08;1.30;;;;;10.70;97724.00;;;;7390403;19;20015;-68
2024/03/23 04:59:48;;;;;;;1.27;1.17;;;;;10.60;97735.00;;;;7392015;19;20013;-68
2024/03/23 05:02:15;;;;;;;1.38;1.17;;;;;10.50;97732.00;;;;7392679;19;20014;-68
2024/03/23 05:04:41;;;;;;;1.92;1.17;;;;;10.50;97737.00;;;;7394591;19;20010;-68
2024/03/23 05:07:07;;;;;;;1.77;1.20;;;;;10.50;97739.00;;;;7389986;19;20539;-68
2024/03/23 05:09:33;;;;;;;1.45;1.17;;;;;10.60;97744.00;;;;7391085;19;20507;-68
2024/03/23 05:12:00;;;;;;;1.23;1.13;;;;;10.50;97755.00;;;;7389340;19;20022;-68
2024/03/23 05:14:26;;;;;;;1.50;1.10;;;;;10.50;97758.00;;;;7391111;19;20006;-68
2024/03/23 05:16:53;;;;;;;1.45;1.10;;;;;10.50;97752.00;;;;7389892;19;20010;-68
2024/03/23 05:19:18;;;;;;;1.20;1.10;;;;;10.40;97748.00;;;;7390738;19;20435;-68
2024/03/23 05:21:44;;;;;;;1.00;0.90;;;;;10.30;97761.00;;;;7390208;19;20013;-68
2024/03/23 05:24:10;;;;;;;1.27;1.17;;;;;10.30;97765.00;;;;7390989;19;20470;-68
2024/03/23 05:26:36;;;;;;;2.05;1.00;;;;;10.30;97758.00;;;;7389984;19;20090;-68
2024/03/23 05:29:02;;;;;;;1.58;1.00;;;;;10.30;97767.00;;;;7398446;19;20006;-68
2024/03/23 05:31:32;;;;;;;0.90;0.77;;;;;10.30;97767.00;;;;7397528;19;20021;-68
2024/03/23 05:33:57;;;;;;;0.60;0.60;;;;;10.20;97776.00;;;;7402323;19;20014;-68
2024/03/23 05:36:26;;;;;;;0.82;0.82;;;;;10.10;97784.00;;;;7396812;19;20368;-68
2024/03/23 05:38:51;;;;;;;0.65;0.60;;;;;10.10;97792.00;;;;7398204;19;20012;-68
2024/03/23 05:41:17;;;;;;;0.70;0.70;;;;;10.10;97787.00;;;;7398095;19;20340;-68
2024/03/23 05:43:43;;;;;;;0.88;0.60;;;;;10.00;97797.00;;;;7420243;19;20620;-68
2024/03/23 05:46:09;;;;;;;0.50;0.50;;;;;10.00;97807.00;;;;7429669;19;20026;-68
2024/03/23 05:48:34;;;;;;;0.60;0.60;;;;;9.90;97810.00;;;;7431116;19;20015;-68
2024/03/23 05:51:00;;;;;;;0.60;0.60;;;;;9.80;97813.00;;;;7427135;19;20010;-68
2024/03/23 05:53:26;;;;;;;0.57;0.57;;;;;9.80;97827.00;;;;7421326;19;20011;-67
2024/03/23 05:56:00;;;;;;;0.60;0.60;;;;;9.80;97831.00;;;;7413838;19;20358;-68
2024/03/23 05:58:27;;;;;;;1.02;0.70;;;;;9.80;97836.00;;;;7403949;19;20014;-68
2024/03/23 06:01:01;;;;;;;0.50;0.40;;;;;9.70;97833.00;;;;7403394;19;20013;-67
2024/03/23 06:03:28;;;;;;;1.17;0.70;;;;;9.70;97834.00;;;;7406845;19;20428;-68
2024/03/23 06:05:54;;;;;;;0.43;0.43;;;;;9.70;97826.00;;;;7410808;19;20010;-67
2024/03/23 06:08:19;;;;;;;2.28;0.40;;;;;9.60;97850.00;;;;7410706;19;20032;-67
2024/03/23 06:10:46;;;;;;;0.50;0.50;;;;;9.60;97854.00;;;;7410193;19;20014;-67
2024/03/23 06:13:12;;;;;;;1.55;0.77;;;;;9.60;97857.00;;;;7402264;19;20006;-68
2024/03/23 06:15:38;;;;;;;0.40;0.40;;;;;9.60;97856.00;;;;7404594;19;19998;-67
2024/03/23 06:18:04;;;;;;;1.25;0.50;;;;;9.60;97855.00;;;;7402540;19;20014;-68
2024/03/23 06:20:30;;;;;;;0.45;0.40;;;;;9.60;97857.00;;;;7401418;19;20467;-67
2024/03/23 06:22:56;;;;;;;0.60;0.60;;;;;9.60;97848.00;;;;7407682;19;20027;-68
2024/03/23 06:25:22;;;;;;;0.40;0.40;;;;;9.70;97848.00;;;;7404644;19;20039;-66
2024/03/23 06:27:48;;;;;;;0.30;0.30;;;;;9.70;97860.00;;;;7398083;19;20014;-67
2024/03/23 06:30:13;;;;;;;0.40;0.40;;;;;9.70;97866.00;;;;7397865;19;20094;-68
2024/03/23 06:32:39;;;;;;;0.40;0.40;;;;;9.80;97882.00;;;;7398153;19;20014;-66
2024/03/23 06:35:08;;;;;;;0.40;0.40;;;;;9.80;97879.00;;;;7397351;19;20071;-67
2024/03/23 06:37:35;;;;;;;0.40;0.40;;;;;9.90;97883.00;;;;7395308;19;20010;-67
2024/03/23 06:40:01;;;;;;;0.40;0.40;;;;;9.80;97902.00;;;;7395738;19;20035;-67
2024/03/23 06:42:26;;;;;;;0.40;0.40;;;;;9.80;97909.00;;;;7396539;19;20007;-67
2024/03/23 06:44:52;;;;;;;0.40;0.40;;;;;9.80;97911.00;;;;7396490;19;20011;-68
2024/03/23 06:47:17;;;;;;;0.70;0.70;;;;;9.90;97917.00;;;;7394678;19;20018;-68
2024/03/23 06:49:43;;;;;;;0.98;0.60;;;;;9.80;97911.00;;;;7396593;19;20014;-68
2024/03/23 06:52:09;;;;;;;3.13;0.60;;;;;9.90;97918.00;;;;7394803;19;20031;-67
2024/03/23 06:54:34;;;;;;;2.72;1.25;;;;;10.00;97932.00;;;;7396212;19;20014;-67
2024/03/23 06:57:00;;;;;;;1.10;1.00;;;;;10.10;97938.00;;;;7394332;19;20116;-67
2024/03/23 06:59:26;;;;;;;1.70;0.90;;;;;10.10;97939.00;;;;7395516;19;20349;-67
2024/03/23 07:01:51;;;;;;;4.53;1.15;;;;;10.20;97955.00;;;;7395672;19;20617;-67
2024/03/23 07:04:18;;;;;;;5.30;1.20;;;;;10.10;97966.00;;;;7398737;19;20017;-67
2024/03/23 07:06:44;;;;;;;3.35;1.45;;;;;10.10;97975.00;;;;7396460;19;20018;-67
2024/03/23 07:09:10;;;;;;;5.38;1.67;;;;;10.00;97976.00;;;;7399764;19;20011;-67
2024/03/23 07:11:36;;;;;;;3.28;1.67;;;;;10.00;97997.00;;;;7400584;19;20031;-67
2024/03/23 07:14:02;;;;;;;7.55;2.50;;;;;10.00;97997.00;;;;7400456;19;20107;-67
2024/03/23 07:16:28;;;;;;;4.78;2.03;;;;;9.90;98000.00;;;;7397057;19;20011;-67
2024/03/23 07:18:55;;;;;;;7.03;2.17;;;;;9.90;98001.00;;;;7396651;19;20039;-67
2024/03/23 07:21:21;;;;;;;8.85;2.25;;;;;10.00;98003.00;;;;7395500;19;20035;-67
2024/03/23 07:23:47;;;;;;;5.68;2.55;;;;;10.20;98006.00;;;;7396672;19;20022;-67
2024/03/23 07:26:12;;;;;;;7.03;2.65;;;;;10.20;97997.00;;;;7393911;19;20071;-67
2024/03/23 07:28:42;;;;;;;6.95;2.28;;;;;10.30;98001.00;;;;7394352;19;20022;-67
2024/03/23 07:31:11;;;;;;;9.30;3.38;;;;;10.50;97996.00;;;;7393608;19;20025;-67
2024/03/23 07:33:41;;;;;;;8.75;2.75;;;;;10.70;98000.00;;;;7398976;19;20007;-67
2024/03/23 07:36:07;;;;;;;7.60;2.72;;;;;10.70;98014.00;;;;7398222;19;20022;-67
2024/03/23 07:38:32;;;;;;;10.55;3.17;;;;;10.70;98010.00;;;;7394183;19;20039;-67
2024/03/23 07:41:04;;;;;;;3.58;2.17;;;;;10.90;98008.00;;;;7393405;19;20321;-67
2024/03/23 07:43:30;;;;;;;13.90;2.85;;;;;11.00;98021.00;;;;7393789;19;20017;-68
2024/03/23 07:45:56;;;;;;;6.93;2.33;;;;;11.10;98023.00;;;;7393231;19;20019;-67
2024/03/23 07:48:24;;;;;;;7.55;2.60;;;;;11.10;98035.00;;;;7393823;19;20010;-67
2024/03/23 07:51:10;;;;;;;6.32;2.90;;;;;11.20;98050.00;;;;7393028;19;20026;-67
2024/03/23 07:53:37;;;;;;;14.48;3.22;;;;;11.10;98046.00;;;;7396446;19;20015;-67
2024/03/23 07:56:07;;;;;;;7.75;2.88;;;;;11.10;98049.00;;;;7397699;19;20034;-67
2024/03/23 07:58:33;;;;;;;8.32;3.45;;;;;11.00;98067.00;;;;7394044;19;20035;-67
2024/03/23 08:01:09;;;;;;;6.53;3.10;;;;;11.00;98060.00;;;;7392848;19;20365;-67
2024/03/23 08:03:35;;;;;;;11.35;3.65;;;;;11.10;98063.00;;;;7393695;19;20384;-68
2024/03/23 08:06:08;;;;;;;11.25;3.63;;;;;11.20;98070.00;;;;7396437;19;20377;-67
2024/03/23 08:08:34;;;;;;;8.07;3.30;;;;;11.10;98073.00;;;;7393585;19;20014;-67
2024/03/23 08:11:00;;;;;;;6.22;3.13;;;;;11.00;98073.00;;;;7392872;19;20015;-67
2024/03/23 08:13:26;;;;;;;10.88;3.60;;;;;11.10;98077.00;;;;7391828;19;20013;-66
2024/03/23 08:15:56;;;;;;;7.30;3.13;;;;;11.10;98068.00;;;;7392791;19;20018;-67
2024/03/23 08:18:22;;;;;;;13.52;4.57;;;;;11.10;98079.00;;;;7392824;19;20455;-67
2024/03/23 08:21:01;;;;;;;9.07;3.72;;;;;11.00;98079.00;;;;7392115;19;20023;-67
2024/03/23 08:23:27;;;;;;;8.20;3.15;;;;;11.00;98069.00;;;;7396233;19;20018;-67
2024/03/23 08:26:01;;;;;;;8.40;3.50;;;;;11.10;98076.00;;;;7395785;19;20022;-67
2024/03/23 08:28:27;;;;;;;6.03;3.50;;;;;11.10;98076.00;;;;7393133;19;20210;-67
2024/03/23 08:30:54;;;;;;;11.30;4.20;;;;;11.30;98078.00;;;;7394116;19;20283;-67
2024/03/23 08:33:20;;;;;;;11.25;3.58;;;;;11.40;98086.00;;;;7392316;19;20014;-67
2024/03/23 08:36:00;;;;;;;7.25;3.05;;;;;11.30;98091.00;;;;7391740;19;20014;-66
2024/03/23 08:38:27;;;;;;;9.57;3.38;;;;;11.00;98079.00;;;;7392735;19;20022;-67
2024/03/23 08:41:06;;;;;;;10.68;4.95;;;;;10.90;98079.00;;;;7391677;19;20015;-67
2024/03/23 08:43:33;;;;;;;9.13;4.05;;;;;11.10;98086.00;;;;7392701;19;20043;-66
2024/03/23 08:46:08;;;;;;;10.18;3.63;;;;;11.20;98080.00;;;;7391435;19;20010;-67
2024/03/23 08:48:35;;;;;;;7.10;3.70;;;;;11.50;98087.00;;;;7391791;19;20025;-66
2024/03/23 08:51:05;;;;;;;7.28;3.85;;;;;11.90;98092.00;;;;7391230;19;20040;-66
2024/03/23 08:53:32;;;;;;;10.02;3.58;;;;;11.90;98095.00;;;;7393693;19;20054;-66
2024/03/23 08:56:00;;;;;;;8.55;4.15;;;;;11.80;98101.00;;;;7395551;19;20018;-66
2024/03/23 08:58:26;;;;;;;11.20;4.03;;;;;11.90;98106.00;;;;7391586;19;20022;-66
2024/03/23 09:00:55;;;;;;;9.15;4.78;;;;;11.90;98102.00;;;;7391184;19;20022;-66
2024/03/23 09:03:21;;;;;;;11.82;4.38;;;;;11.70;98097.00;;;;7390114;19;20018;-66
2024/03/23 09:05:46;;;;;;;9.75;4.32;;;;;11.70;98102.00;;;;7391332;19;20011;-66
2024/03/23 09:08:12;;;;;;;10.85;4.47;;;;;11.80;98094.00;;;;7391339;19;20035;-66
2024/03/23 09:10:38;;;;;;;10.35;4.78;;;;;11.80;98103.00;;;;7390325;19;20459;-66
2024/03/23 09:13:04;;;;;;;11.68;4.32;;;;;11.90;98096.00;;;;7388881;19;20111;-66
2024/03/23 09:15:31;;;;;;;13.88;5.20;;;;;11.80;98095.00;;;;7390940;19;20030;-66
2024/03/23 09:17:59;;;;;;;11.10;5.15;;;;;11.80;98104.00;;;;7391252;19;20030;-66
2024/03/23 09:20:25;;;;;;;14.77;4.47;;;;;11.70;98097.00;;;;7390450;19;20029;-66
2024/03/23 09:22:50;;;;;;;10.80;4.65;;;;;11.90;98088.00;;;;7393008;19;20459;-66
2024/03/23 09:25:16;;;;;;;7.03;3.65;;;;;12.00;98079.00;;;;7393962;19;20013;-66
2024/03/23 09:27:41;;;;;;;11.07;4.40;;;;;11.90;98094.00;;;;7388705;19;20003;-66
2024/03/23 09:30:07;;;;;;;18.08;4.65;;;;;11.80;98098.00;;;;7391452;19;20014;-66
2024/03/23 09:32:33;;;;;;;13.85;4.55;;;;;11.60;98097.00;;;;7393185;19;20010;-66
2024/03/23 09:34:59;;;;;;;10.07;3.97;;;;;11.60;98104.00;;;;7390426;19;20031;-66
2024/03/23 09:37:24;;;;;;;8.70;4.13;;;;;11.40;98099.00;;;;7389692;19;20017;-67
2024/03/23 09:39:50;;;;;;;11.88;4.93;;;;;11.20;98093.00;;;;7391077;19;20023;-66
2024/03/23 09:42:16;;;;;;;9.82;4.43;;;;;11.10;98096.00;;;;7389467;19;20019;-66
2024/03/23 09:44:42;;;;;;;13.80;4.13;;;;;11.00;98095.00;;;;7390176;19;20015;-66
2024/03/23 09:47:08;;;;;;;9.57;3.85;;;;;10.90;98109.00;;;;7389209;19;20010;-67
2024/03/23 09:49:36;;;;;;;12.43;3.97;;;;;10.80;98111.00;;;;7392229;19;20487;-66
2024/03/23 09:52:03;;;;;;;9.80;3.88;;;;;11.00;98096.00;;;;7389605;19;20019;-66
2024/03/23 09:54:29;;;;;;;11.85;4.20;;;;;11.30;98101.00;;;;7390608;19;20463;-66
2024/03/23 09:56:54;;;;;;;9.30;4.22;;;;;11.50;98097.00;;;;7388503;19;20013;-66
2024/03/23 09:59:20;;;;;;;11.13;3.67;;;;;12.00;98119.00;;;;7389559;19;20035;-67
2024/03/23 10:01:46;;;;;;;8.80;3.35;;;;;11.90;98110.00;;;;7393813;19;20025;-66
2024/03/23 10:04:38;;;;;;;9.77;3.40;;;;;12.10;98111.00;;;;7394645;19;20022;-66
2024/03/23 10:07:23;;;;;;;7.65;3.42;;;;;12.10;98116.00;;;;7388318;19;20022;-66
2024/03/23 10:09:51;;;;;;;10.95;3.72;;;;;12.10;98109.00;;;;7390260;19;20184;-66
2024/03/23 10:12:18;;;;;;;6.30;3.05;;;;;12.20;98091.00;;;;7387931;19;20039;-66
2024/03/23 10:14:44;;;;;;;9.25;2.78;;;;;12.20;98092.00;;;;7393050;19;20043;-66
2024/03/23 10:17:17;;;;;;;6.72;2.45;;;;;12.20;98085.00;;;;7395016;19;20018;-66
2024/03/23 10:19:47;;;;;;;9.17;3.40;;;;;12.30;98084.00;;;;7397652;19;20018;-66
2024/03/23 10:22:15;;;;;;;7.18;2.60;;;;;12.40;98082.00;;;;7397469;19;20015;-66
2024/03/23 10:24:43;;;;;;;9.05;2.80;;;;;12.60;98080.00;;;;7396709;19;20404;-66
2024/03/23 10:27:09;;;;;;;9.98;2.03;;;;;12.60;98099.00;;;;7394830;19;20019;-68
2024/03/23 10:29:35;;;;;;;8.73;2.50;;;;;12.60;98091.00;;;;7396333;19;20014;-64
2024/03/23 10:32:21;;;;;;;8.13;2.97;;;;;12.60;98075.00;;;;7398766;19;20010;-65
2024/03/23 10:34:47;;;;;;;6.80;2.55;;;;;12.70;98079.00;;;;7395704;19;20011;-65
2024/03/23 10:37:13;;;;;;;8.50;2.38;;;;;12.80;98090.00;;;;7394023;19;20491;-65
2024/03/23 10:39:40;;;;;;;5.78;3.05;;;;;12.80;98078.00;;;;7396118;19;20032;-65
2024/03/23 10:42:10;;;;;;;4.72;2.35;;;;;12.70;98091.00;;;;7395161;19;20356;-66
2024/03/23 10:44:38;;;;;;;8.85;2.70;;;;;12.50;98092.00;;;;7396185;19;20014;-65
2024/03/23 10:47:05;;;;;;;10.95;2.63;;;;;12.10;98106.00;;;;7393700;19;20356;-65
2024/03/23 10:49:32;;;;;;;5.88;2.67;;;;;11.60;98106.00;;;;7395719;19;20365;-65
2024/03/23 10:52:05;;;;;;;4.78;2.47;;;;;11.40;98106.00;;;;7393992;19;20018;-65
2024/03/23 10:54:32;;;;;;;3.22;2.05;;;;;11.20;98119.00;;;;7395443;19;20025;-65
2024/03/23 10:57:07;;;;;;;7.38;2.35;;;;;10.90;98128.00;;;;7393599;19;20006;-65
2024/03/23 10:59:35;;;;;;;9.30;3.00;;;;;10.60;98121.00;;;;7397447;19;20025;-66
2024/03/23 11:02:04;;;;;;;4.10;2.40;;;;;10.50;98118.00;;;;7405486;19;20460;-65
2024/03/23 11:04:32;;;;;;;7.47;2.53;;;;;10.70;98120.00;;;;7404696;19;20011;-65
2024/03/23 11:06:59;;;;;;;6.38;2.63;;;;;10.60;98122.00;;;;7402542;19;20013;-65
2024/03/23 11:09:46;;;;;;;2.67;1.88;;;;;10.50;98110.00;;;;7404225;19;20010;-66
2024/03/23 11:12:22;;;;;;;4.53;2.15;;;;;10.70;98109.00;;;;7402200;19;20022;-65
2024/03/23 11:14:51;;;;;;;4.72;2.05;;;;;11.10;98114.00;;;;7403543;19;20381;-65
2024/03/23 11:17:21;;;;;;;2.72;1.27;;;;;11.30;98110.00;;;;7393364;19;20355;-66
2024/03/23 11:20:06;;;;;;;2.47;1.27;;;;;11.60;98110.00;;;;7395881;19;20400;-66
2024/03/23 11:22:41;;;;;;;3.42;1.55;;;;;11.60;98109.00;;;;7394996;19;20034;-66
2024/03/23 11:25:23;;;;;;;5.10;2.20;;;;;11.50;98113.00;;;;7394253;19;20042;-66
2024/03/23 11:27:54;;;;;;;5.18;1.80;;;;;11.40;98135.00;;;;7392925;19;20363;-65
2024/03/23 11:30:22;;;;;;;4.53;2.05;;;;;11.00;98157.00;;;;7395952;19;20422;-65
2024/03/23 11:32:49;;;;;;;3.70;1.38;;;;;10.50;98181.00;;;;7398088;19;20010;-66
2024/03/23 11:35:32;;;;;;;3.05;1.20;;;;;9.50;98204.00;;;;7394984;19;20022;-65
2024/03/23 11:38:09;;;;;;;3.22;1.20;;;;;8.70;98185.00;;;;7394629;19;20014;-65
2024/03/23 11:40:36;;;;;;;2.25;1.00;;;;;8.40;98168.00;;;;7393363;19;20018;-65
2024/03/23 11:43:13;;;;;;;0.95;0.88;;;;;8.30;98139.00;;;;7394640;19;20025;-65
2024/03/23 11:45:40;;;;;;;1.45;0.90;;;;;8.60;98131.00;;;;7394939;19;20022;-66
2024/03/23 11:48:19;;;;;;;3.33;1.48;;;;;9.00;98123.00;;;;7395401;19;20006;-65
2024/03/23 11:50:49;;;;;;;1.77;0.85;;;;;9.50;98120.00;;;;7393369;19;20015;-65
2024/03/23 11:53:22;;;;;;;3.00;1.15;;;;;10.00;98120.00;;;;7393787;19;20018;-66
2024/03/23 11:56:06;;;;;;;1.80;1.23;;;;;10.30;98134.00;;;;7393551;19;20783;-65
2024/03/23 11:58:34;;;;;;;1.80;1.20;;;;;10.40;98130.00;;;;7394724;19;20011;-65
2024/03/23 12:01:05;;;;;;;2.33;1.25;;;;;10.50;98137.00;;;;7397604;19;20355;-65
2024/03/23 12:03:33;;;;;;;2.50;1.80;;;;;10.50;98141.00;;;;7393357;19;20351;-66
2024/03/23 12:06:02;;;;;;;4.63;2.00;;;;;10.20;98153.00;;;;7392135;19;20467;-66
2024/03/23 12:08:31;;;;;;;2.53;1.35;;;;;9.80;98174.00;;;;7393493;19;20348;-66
2024/03/23 12:11:13;;;;;;;4.75;1.30;;;;;9.30;98215.00;;;;7392603;19;20035;-65
2024/03/23 12:13:41;;;;;;;3.97;1.30;;;;;8.50;98194.00;;;;7391296;19;20014;-66
2024/03/23 12:16:14;;;;;;;3.10;1.52;;;;;8.00;98178.00;;;;7392483;19;20010;-66
2024/03/23 12:18:41;;;;;;;2.95;1.20;;;;;7.90;98158.00;;;;7392276;19;20025;-67